createdAt,value
2023-04-18T00:01:38.408Z,2.00
2023-04-18T00:04:05.608Z,2.00
2023-04-18T00:06:32.731Z,2.00
2023-04-18T00:08:59.414Z,1.85
2023-04-18T00:11:26.180Z,2.53
2023-04-18T00:13:52.961Z,2.30
2023-04-18T00:16:19.746Z,2.40
2023-04-18T00:18:48.205Z,1.85
2023-04-18T00:21:16.765Z,1.95
2023-04-18T00:23:43.484Z,2.17
2023-04-18T00:26:10.155Z,2.20
2023-04-18T00:28:36.977Z,1.83
2023-04-18T00:31:03.776Z,1.77
2023-04-18T00:33:30.505Z,1.88
2023-04-18T00:35:57.271Z,2.03
2023-04-18T00:38:23.958Z,2.20
2023-04-18T00:40:50.904Z,2.15
2023-04-18T00:43:17.680Z,1.83
2023-04-18T00:45:44.524Z,1.80
2023-04-18T00:48:11.504Z,1.90
2023-04-18T00:50:38.554Z,2.23
2023-04-18T00:53:05.783Z,2.53
2023-04-18T00:55:32.547Z,2.25
2023-04-18T00:57:59.257Z,2.13
2023-04-18T01:00:26.010Z,2.53
2023-04-18T01:02:54.049Z,2.10
2023-04-18T01:05:24.124Z,2.28
2023-04-18T01:07:52.070Z,1.88
2023-04-18T01:10:18.988Z,2.25
2023-04-18T01:12:45.805Z,1.90
2023-04-18T01:15:12.546Z,2.60
2023-04-18T01:17:39.753Z,2.30
2023-04-18T01:20:07.267Z,2.40
2023-04-18T01:22:34.012Z,2.25
2023-04-18T01:25:00.792Z,2.40
2023-04-18T01:27:27.491Z,2.37
2023-04-18T01:29:54.253Z,2.75
2023-04-18T01:32:22.356Z,2.58
2023-04-18T01:34:49.148Z,2.00
2023-04-18T01:37:15.894Z,2.53
2023-04-18T01:39:42.587Z,2.50
2023-04-18T01:42:09.415Z,2.28
2023-04-18T01:44:36.211Z,2.75
2023-04-18T01:47:03.100Z,2.60
2023-04-18T01:49:29.941Z,2.13
2023-04-18T01:51:56.689Z,2.60
2023-04-18T01:54:23.519Z,2.40
2023-04-18T01:56:50.195Z,2.40
2023-04-18T01:59:16.969Z,2.55
2023-04-18T02:01:43.714Z,2.50
2023-04-18T02:04:10.672Z,2.60
2023-04-18T02:06:37.428Z,2.80
2023-04-18T02:09:04.107Z,2.90
2023-04-18T02:11:30.877Z,2.90
2023-04-18T02:13:59.539Z,2.80
2023-04-18T02:16:26.512Z,3.30
2023-04-18T02:18:53.525Z,2.80
2023-04-18T02:21:21.841Z,3.25
2023-04-18T02:23:48.760Z,2.92
2023-04-18T02:26:15.510Z,3.38
2023-04-18T02:28:42.180Z,2.90
2023-04-18T02:31:14.478Z,2.80
2023-04-18T02:33:47.227Z,3.10
2023-04-18T02:36:14.004Z,3.10
2023-04-18T02:38:40.733Z,3.10
2023-04-18T02:41:07.784Z,3.17
2023-04-18T02:43:34.549Z,3.20
2023-04-18T02:46:01.317Z,3.35
2023-04-18T02:48:28.148Z,3.20
2023-04-18T02:51:03.258Z,2.80
2023-04-18T02:53:30.071Z,3.03
2023-04-18T02:55:56.877Z,2.95
2023-04-18T02:58:23.626Z,3.20
2023-04-18T03:00:53.012Z,3.55
2023-04-18T03:03:19.904Z,3.47
2023-04-18T03:05:46.676Z,2.90
2023-04-18T03:08:13.347Z,3.50
2023-04-18T03:10:40.158Z,3.63
2023-04-18T03:13:06.887Z,3.50
2023-04-18T03:15:33.678Z,3.42
2023-04-18T03:18:00.479Z,3.97
2023-04-18T03:20:27.212Z,3.25
2023-04-18T03:22:53.942Z,3.38
2023-04-18T03:25:20.620Z,3.17
2023-04-18T03:27:47.353Z,3.40
2023-04-18T03:30:14.157Z,3.67
2023-04-18T03:32:42.159Z,3.20
2023-04-18T03:35:09.492Z,3.00
2023-04-18T03:37:36.237Z,3.22
2023-04-18T03:40:05.364Z,2.95
2023-04-18T03:42:32.198Z,3.70
2023-04-18T03:44:58.868Z,3.60
2023-04-18T03:47:25.649Z,3.30
2023-04-18T03:49:54.227Z,3.30
2023-04-18T03:52:21.054Z,3.63
2023-04-18T03:54:47.778Z,3.43
2023-04-18T03:57:14.774Z,3.10
2023-04-18T03:59:41.811Z,3.17
2023-04-18T04:02:08.615Z,3.20
2023-04-18T04:04:35.468Z,3.58
2023-04-18T04:07:02.245Z,3.00
2023-04-18T04:09:28.983Z,3.30
2023-04-18T04:11:55.689Z,3.20
2023-04-18T04:14:22.896Z,3.28
2023-04-18T04:16:49.875Z,3.20
2023-04-18T04:19:16.720Z,3.93
2023-04-18T04:21:43.435Z,3.70
2023-04-18T04:24:10.121Z,3.50
2023-04-18T04:26:36.872Z,3.50
2023-04-18T04:29:03.745Z,3.40
2023-04-18T04:31:31.834Z,3.80
2023-04-18T04:33:58.593Z,3.70
2023-04-18T04:36:27.224Z,3.17
2023-04-18T04:38:54.029Z,3.47
2023-04-18T04:41:22.377Z,3.45
2023-04-18T04:43:49.849Z,3.53
2023-04-18T04:46:19.899Z,3.42
2023-04-18T04:48:46.936Z,3.33
2023-04-18T04:51:13.682Z,3.33
2023-04-18T04:53:40.460Z,3.30
2023-04-18T04:56:07.544Z,3.23
2023-04-18T04:58:34.235Z,2.75
2023-04-18T05:01:01.023Z,3.25
2023-04-18T05:03:27.894Z,3.15
2023-04-18T05:05:54.747Z,3.40
2023-04-18T05:08:21.515Z,2.93
2023-04-18T05:10:49.726Z,2.85
2023-04-18T05:13:16.795Z,2.95
2023-04-18T05:15:45.598Z,2.92
2023-04-18T05:18:14.153Z,3.45
2023-04-18T05:20:40.968Z,3.10
2023-04-18T05:23:07.704Z,2.97
2023-04-18T05:25:34.468Z,2.65
2023-04-18T05:28:01.351Z,3.10
2023-04-18T05:30:28.133Z,3.15
2023-04-18T05:32:54.939Z,2.77
2023-04-18T05:35:21.714Z,2.03
2023-04-18T05:37:48.656Z,2.53
2023-04-18T05:40:15.669Z,3.22
2023-04-18T05:42:42.429Z,2.90
2023-04-18T05:45:09.455Z,2.73
2023-04-18T05:47:36.188Z,3.00
2023-04-18T05:50:03.517Z,2.92
2023-04-18T05:52:30.419Z,3.45
2023-04-18T05:54:57.163Z,2.63
2023-04-18T05:57:23.965Z,2.60
2023-04-18T05:59:50.673Z,3.13
2023-04-18T06:02:17.498Z,2.78
2023-04-18T06:04:45.290Z,2.67
2023-04-18T06:07:12.537Z,2.15
2023-04-18T06:09:39.363Z,2.27
2023-04-18T06:12:06.140Z,2.40
2023-04-18T06:14:32.935Z,2.60
2023-04-18T06:16:59.796Z,1.98
2023-04-18T06:19:26.481Z,2.47
2023-04-18T06:21:53.468Z,2.10
2023-04-18T06:24:20.723Z,2.20
2023-04-18T06:26:47.674Z,2.38
2023-04-18T06:29:14.587Z,2.10
2023-04-18T06:31:46.130Z,2.00
2023-04-18T06:34:13.181Z,2.10
2023-04-18T06:36:40.174Z,1.92
2023-04-18T06:39:06.902Z,1.58
2023-04-18T06:41:33.855Z,2.17
2023-04-18T06:44:04.180Z,1.83
2023-04-18T06:46:32.529Z,1.67
2023-04-18T06:48:59.713Z,1.88
2023-04-18T06:51:27.539Z,1.40
2023-04-18T06:53:54.379Z,2.00
2023-04-18T06:56:21.618Z,2.20
2023-04-18T06:58:49.314Z,1.60
2023-04-18T07:01:16.127Z,1.77
2023-04-18T07:03:42.960Z,1.65
2023-04-18T07:06:10.937Z,1.48
2023-04-18T07:08:37.908Z,1.70
2023-04-18T07:11:06.098Z,1.60
2023-04-18T07:13:32.863Z,2.15
2023-04-18T07:15:59.772Z,1.60
2023-04-18T07:18:36.724Z,1.70
2023-04-18T07:22:20.596Z,1.40
